createdAt,value
2023-03-21T00:02:25.908Z,11.56
2023-03-21T00:07:30.475Z,11.57
2023-03-21T00:12:37.846Z,11.56
2023-03-21T00:17:41.160Z,11.56
2023-03-21T00:22:45.871Z,11.54
2023-03-21T00:28:05.081Z,11.54
2023-03-21T00:33:22.050Z,11.52
2023-03-21T00:38:27.369Z,11.48
2023-03-21T00:43:31.252Z,11.44
2023-03-21T00:48:34.389Z,11.43
2023-03-21T00:53:38.956Z,11.41
2023-03-21T00:58:42.718Z,11.32
2023-03-21T01:03:51.250Z,11.28
2023-03-21T01:08:56.217Z,11.19
2023-03-21T01:14:14.701Z,11.13
2023-03-21T01:19:37.667Z,11.04
2023-03-21T01:24:53.873Z,10.97
2023-03-21T01:29:58.677Z,10.95
2023-03-21T01:35:05.549Z,10.89
2023-03-21T01:40:16.744Z,10.83
2023-03-21T01:45:57.028Z,10.85
2023-03-21T01:51:01.842Z,10.78
2023-03-21T01:56:13.799Z,10.77
2023-03-21T02:01:19.581Z,10.76
2023-03-21T02:06:31.916Z,10.76
2023-03-21T02:11:38.632Z,10.66
2023-03-21T02:16:50.012Z,10.61
2023-03-21T02:22:21.961Z,10.61
2023-03-21T02:27:29.635Z,10.55
2023-03-21T02:32:49.122Z,10.55
2023-03-21T02:38:00.902Z,10.55
2023-03-21T02:43:20.861Z,10.57
2023-03-21T02:48:44.395Z,10.56
2023-03-21T02:54:24.853Z,10.52
2023-03-21T02:59:26.258Z,10.52
2023-03-21T03:04:31.229Z,10.52
2023-03-21T03:09:46.534Z,10.55
2023-03-21T03:15:03.357Z,10.48
2023-03-21T03:20:20.410Z,10.49
2023-03-21T03:25:41.530Z,10.47
2023-03-21T03:31:01.131Z,10.46
2023-03-21T03:36:28.375Z,10.46
2023-03-21T03:42:04.175Z,10.48
2023-03-21T03:47:06.990Z,10.49
2023-03-21T03:52:15.112Z,10.48
2023-03-21T03:57:20.366Z,10.47
2023-03-21T04:02:23.635Z,10.46
2023-03-21T04:07:27.935Z,10.44
2023-03-21T04:18:05.019Z,10.42
2023-03-21T04:23:09.086Z,10.44
2023-03-21T04:28:12.399Z,10.46
2023-03-21T04:33:17.175Z,10.47
2023-03-21T04:38:20.406Z,10.46
2023-03-21T04:43:23.988Z,10.52
2023-03-21T04:48:28.850Z,10.52
2023-03-21T04:53:31.932Z,10.54
2023-03-21T04:58:35.234Z,10.55
2023-03-21T05:03:40.593Z,10.55
2023-03-21T05:08:43.810Z,10.57
2023-03-21T05:13:47.127Z,10.55
2023-03-21T05:18:52.740Z,10.56
2023-03-21T05:23:56.693Z,10.51
2023-03-21T05:28:59.880Z,10.52
2023-03-21T05:34:04.936Z,10.57
2023-03-21T05:39:08.223Z,10.62
2023-03-21T05:44:11.672Z,10.64
2023-03-21T05:49:16.544Z,10.66
2023-03-21T05:54:24.344Z,10.68
2023-03-21T05:59:27.792Z,10.71
2023-03-21T06:04:34.482Z,10.75
2023-03-21T06:09:38.073Z,10.79
2023-03-21T06:14:41.333Z,10.82
2023-03-21T06:19:45.898Z,10.96
2023-03-21T06:24:50.167Z,11.16
2023-03-21T06:29:53.606Z,11.29
2023-03-21T06:34:58.413Z,11.37
2023-03-21T06:40:02.149Z,11.43
2023-03-21T06:45:09.440Z,11.46
2023-03-21T06:50:14.438Z,11.52
2023-03-21T06:55:26.218Z,11.56
2023-03-21T07:00:29.800Z,11.63
2023-03-21T07:05:36.881Z,11.68
2023-03-21T07:10:45.538Z,11.76
2023-03-21T07:15:48.831Z,11.84
2023-03-21T07:20:53.715Z,11.90
2023-03-21T07:25:57.567Z,11.99
2023-03-21T07:31:02.659Z,11.98
2023-03-21T07:36:12.629Z,12.95
2023-03-21T07:46:19.788Z,13.48
2023-03-21T07:51:24.716Z,13.68
2023-03-21T07:56:28.093Z,13.85
2023-03-21T08:01:32.195Z,13.97
2023-03-21T08:06:37.331Z,14.34
2023-03-21T08:11:41.954Z,14.60
2023-03-21T08:16:45.339Z,14.53
2023-03-21T08:21:51.125Z,14.68
2023-03-21T08:26:54.659Z,14.87
2023-03-21T08:31:58.263Z,14.82
2023-03-21T08:37:04.351Z,14.69
2023-03-21T08:42:07.522Z,14.59
2023-03-21T08:47:11.015Z,14.68
2023-03-21T08:52:15.720Z,15.01
2023-03-21T08:57:18.961Z,14.91
2023-03-21T09:02:22.529Z,15.14
2023-03-21T09:07:28.005Z,15.41
2023-03-21T09:12:31.508Z,15.38
2023-03-21T09:17:34.689Z,15.35
2023-03-21T09:22:42.324Z,15.54
2023-03-21T09:27:46.257Z,15.78
2023-03-21T09:32:50.483Z,15.86
2023-03-21T09:37:57.587Z,16.07
2023-03-21T09:43:12.786Z,16.07
2023-03-21T09:48:29.479Z,16.18
2023-03-21T09:53:37.906Z,16.02
2023-03-21T09:58:46.298Z,16.17
2023-03-21T10:03:50.736Z,16.77
2023-03-21T10:08:58.989Z,17.00
2023-03-21T10:14:06.365Z,17.21
2023-03-21T10:19:13.968Z,17.60
2023-03-21T10:24:21.856Z,16.92
2023-03-21T10:29:30.833Z,16.97
2023-03-21T10:34:40.930Z,17.08
2023-03-21T10:39:48.792Z,17.34
2023-03-21T10:44:54.573Z,17.48
2023-03-21T10:50:08.432Z,17.70
2023-03-21T10:55:22.830Z,17.81
2023-03-21T11:00:30.313Z,17.74
2023-03-21T11:05:41.015Z,17.95
2023-03-21T11:10:55.494Z,18.27
2023-03-21T11:16:07.412Z,18.32
2023-03-21T11:21:13.132Z,18.24
2023-03-21T11:26:24.467Z,18.40
2023-03-21T11:31:40.289Z,18.54
2023-03-21T11:36:43.701Z,18.53
2023-03-21T11:41:53.661Z,18.60
2023-03-21T11:46:56.991Z,18.62
2023-03-21T11:52:13.654Z,18.51
2023-03-21T11:57:33.317Z,18.75
2023-03-21T12:03:03.160Z,18.84
2023-03-21T12:08:23.606Z,19.00
2023-03-21T12:13:48.539Z,19.02
2023-03-21T12:19:10.487Z,19.05
2023-03-21T12:24:20.672Z,19.24
2023-03-21T12:29:49.024Z,19.43
2023-03-21T12:35:28.466Z,19.39
2023-03-21T12:40:46.088Z,19.34
2023-03-21T12:45:56.254Z,19.36
2023-03-21T12:51:03.949Z,19.38
2023-03-21T12:56:11.564Z,19.40
2023-03-21T13:01:19.729Z,19.49
2023-03-21T13:06:26.668Z,19.48
2023-03-21T13:11:32.217Z,19.58
2023-03-21T13:16:40.417Z,19.65
2023-03-21T13:21:51.793Z,19.59
2023-03-21T13:27:04.332Z,19.69
2023-03-21T13:32:17.402Z,19.55
2023-03-21T13:37:21.756Z,19.52
2023-03-21T13:42:33.485Z,19.47
2023-03-21T13:47:42.645Z,19.45
2023-03-21T13:53:25.563Z,19.60
2023-03-21T13:58:38.595Z,19.59
2023-03-21T14:03:45.536Z,19.49
2023-03-21T14:08:51.167Z,19.35
2023-03-21T14:13:56.450Z,19.18
2023-03-21T14:19:05.930Z,19.06
2023-03-21T14:24:14.752Z,19.09
2023-03-21T14:29:26.600Z,19.05
2023-03-21T14:34:34.697Z,18.99
2023-03-21T14:39:37.812Z,18.94
2023-03-21T14:44:58.663Z,18.88
2023-03-21T14:50:04.302Z,18.77
2023-03-21T14:55:16.961Z,18.83
2023-03-21T15:00:26.717Z,18.82
2023-03-21T15:05:33.861Z,18.89
2023-03-21T15:10:38.544Z,18.82
2023-03-21T15:15:43.204Z,18.77
2023-03-21T15:20:51.406Z,18.73
2023-03-21T15:25:54.988Z,18.64
2023-03-21T15:30:58.713Z,18.60
2023-03-21T15:36:10.741Z,18.56
2023-03-21T15:41:32.886Z,18.47
2023-03-21T15:46:43.213Z,18.48
2023-03-21T15:51:52.704Z,18.43
2023-03-21T15:57:01.326Z,18.42
2023-03-21T16:02:06.008Z,18.34
2023-03-21T16:07:17.765Z,18.24
2023-03-21T16:12:21.794Z,18.08
2023-03-21T16:17:30.236Z,17.90
2023-03-21T16:22:35.947Z,17.84
2023-03-21T16:27:39.185Z,17.78
2023-03-21T16:32:42.753Z,17.72
2023-03-21T16:37:48.373Z,17.69
2023-03-21T16:42:51.750Z,17.68
2023-03-21T16:47:55.241Z,17.59
2023-03-21T16:53:00.400Z,17.50
2023-03-21T16:58:03.623Z,17.46
2023-03-21T17:03:14.940Z,17.46
2023-03-21T17:08:22.020Z,17.42
2023-03-21T17:13:25.553Z,17.36
2023-03-21T17:18:29.810Z,17.31
2023-03-21T17:23:34.416Z,17.25
2023-03-21T17:28:37.982Z,17.20
2023-03-21T17:33:41.411Z,17.11
2023-03-21T17:38:46.930Z,17.06
2023-03-21T17:43:55.923Z,16.93
2023-03-21T17:48:59.301Z,16.84
2023-03-21T17:54:05.086Z,16.73
2023-03-21T17:59:13.139Z,16.61
2023-03-21T18:04:16.663Z,16.52
2023-03-21T18:09:21.850Z,16.38
2023-03-21T18:14:28.852Z,16.26
2023-03-21T18:19:34.652Z,16.16
2023-03-21T18:24:39.266Z,15.98
2023-03-21T18:30:22.222Z,15.84
2023-03-21T18:35:06.498Z,15.72
2023-03-21T18:40:13.159Z,15.57
2023-03-21T18:45:18.211Z,15.44
2023-03-21T18:50:21.880Z,15.35
2023-03-21T18:55:44.359Z,15.26
2023-03-21T19:00:50.671Z,15.20
2023-03-21T19:05:53.977Z,15.07
2023-03-21T19:11:05.545Z,14.99
2023-03-21T19:16:11.256Z,14.92
2023-03-21T19:21:14.831Z,14.84
2023-03-21T19:26:19.408Z,14.80
2023-03-21T19:31:24.444Z,14.67
2023-03-21T19:36:27.961Z,14.58
2023-03-21T19:41:34.220Z,14.51
2023-03-21T19:46:37.913Z,14.46
2023-03-21T19:51:41.113Z,14.36
2023-03-21T19:56:47.661Z,14.31
2023-03-21T20:02:34.003Z,14.22
2023-03-21T20:08:01.288Z,14.08
2023-03-21T20:13:22.233Z,14.01
2023-03-21T20:18:25.568Z,13.95
2023-03-21T20:23:28.827Z,13.89
2023-03-21T20:28:33.501Z,13.85
2023-03-21T20:33:37.366Z,13.77
2023-03-21T20:38:40.914Z,13.75
2023-03-21T20:49:08.915Z,13.57
2023-03-21T20:54:12.198Z,13.48
2023-03-21T20:59:25.591Z,13.43
2023-03-21T21:04:48.228Z,13.36
2023-03-21T21:09:54.571Z,13.31
2023-03-21T21:14:59.330Z,13.30
2023-03-21T21:20:08.957Z,13.28
2023-03-21T21:25:13.771Z,13.26
2023-03-21T21:30:18.833Z,13.21
2023-03-21T21:35:22.506Z,13.17
2023-03-21T21:40:26.141Z,13.09
2023-03-21T21:45:30.802Z,13.04
2023-03-21T21:50:34.354Z,13.01
2023-03-21T21:55:37.995Z,12.97
2023-03-21T22:00:42.721Z,12.95
2023-03-21T22:05:46.153Z,12.96
2023-03-21T22:10:49.336Z,12.87
2023-03-21T22:15:54.086Z,12.81
2023-03-21T22:21:00.731Z,12.73
2023-03-21T22:26:03.951Z,12.72
2023-03-21T22:31:13.231Z,12.72
2023-03-21T22:36:20.259Z,12.71
2023-03-21T22:41:23.356Z,12.65
2023-03-21T22:46:27.896Z,12.62
2023-03-21T22:51:31.111Z,12.59
2023-03-21T22:56:34.204Z,12.48
2023-03-21T23:01:39.973Z,12.37
2023-03-21T23:06:43.943Z,12.30
2023-03-21T23:11:49.794Z,12.21
2023-03-21T23:16:55.103Z,12.12
2023-03-21T23:21:59.356Z,12.04
2023-03-21T23:27:02.667Z,11.99
2023-03-21T23:32:07.427Z,11.97
2023-03-21T23:37:10.673Z,11.93
2023-03-21T23:42:13.800Z,11.87
2023-03-21T23:47:18.314Z,11.83
2023-03-21T23:52:21.564Z,11.85
2023-03-21T23:57:25.157Z,11.91
